»·PEaware :: AAL243 KSFO-KSLC

AAL243 :: KSFO-KSLC

FLIGHT INFORMATION

Flight Status: Arrived
Operator:
American Airlines
More flights by this operator :: More flights under this callsign
Pilot: Cullen Chandler (7783)
Aircraft: BOEING 757-200
(B752)
More flights by this aircraft type
Origin: KSFO San Francisco Intl
United States
Destination: KSLC Salt Lake City Intl
United States
More flights between these airports :: More routes between these airports
Route: TRUKN2 MOGEE Q124 BVL WAATS4
File this flight plan on PilotEdge
Remarks:
Altitude:
(Current/Filed)
35,000ft
Speed:
(Current/Filed)
450kts
Departed: 04-Jun-17 02:33 PM
Arrived: 04-Jun-17 03:53 PM
Distance/Time
Traveled:
519nm/1:20
Distance/Time
To Go:
Arrived

Flight Plot

Page will automatically refresh every two minutes.


Map Options




Map Legend


Flown Route
Filed Route
Departure Airport
Arrival Airport
Navaid (VOR, NDB)
Fix

Horizontal Profiles

Position Reports

Time Latitude Longitude Heading Altitude Ground
Speed
04-Jun-17 14:11 37.618357 -122.382033 139 24ft 0kts
04-Jun-17 14:12 37.618357 -122.382033 139 24ft 0kts
04-Jun-17 14:13 37.618357 -122.382033 139 24ft 0kts
04-Jun-17 14:14 37.618357 -122.382033 139 24ft 0kts
04-Jun-17 14:15 37.618357 -122.382033 139 24ft 0kts
04-Jun-17 14:16 37.618357 -122.382033 139 24ft 0kts
04-Jun-17 14:17 37.618357 -122.382033 139 24ft 0kts
04-Jun-17 14:18 37.618357 -122.382033 139 24ft 0kts
04-Jun-17 14:19 37.618357 -122.382033 139 24ft 0kts
04-Jun-17 14:20 37.618651 -122.382731 79 24ft 0kts
04-Jun-17 14:21 37.618769 -122.382656 25 24ft 0kts
04-Jun-17 14:22 37.619078 -122.382576 33 24ft 0kts
04-Jun-17 14:23 37.619078 -122.382576 33 24ft 0kts
04-Jun-17 14:24 37.618853 -122.380066 118 24ft 13kts
04-Jun-17 14:25 37.617322 -122.375554 113 24ft 14kts
04-Jun-17 14:26 37.615375 -122.370786 117 24ft 15kts
04-Jun-17 14:27 37.612401 -122.364807 118 24ft 23kts
04-Jun-17 14:28 37.610511 -122.359836 81 24ft 0kts
04-Jun-17 14:29 37.610511 -122.359836 81 24ft 0kts
04-Jun-17 14:30 37.610511 -122.359836 81 24ft 0kts
04-Jun-17 14:31 37.610531 -122.359723 75 24ft 3kts
04-Jun-17 14:32 37.611002 -122.359043 30 24ft 2kts
04-Jun-17 14:33 37.612127 -122.359314 298 24ft 0kts
04-Jun-17 14:34 37.612127 -122.359314 298 24ft 0kts
04-Jun-17 14:35 37.617810 -122.372861 296 33ft 152kts
04-Jun-17 14:36 37.662737 -122.391406 32 3230ft 249kts
04-Jun-17 14:37 37.680889 -122.326017 74 6234ft 273kts
04-Jun-17 14:38 37.709888 -122.234283 63 9830ft 293kts
04-Jun-17 14:39 37.773994 -122.161661 32 12066ft 350kts
04-Jun-17 14:40 37.855142 -122.087335 32 15258ft 373kts
04-Jun-17 14:41 37.929903 -121.992059 46 18128ft 397kts
04-Jun-17 14:42 38.003291 -121.883919 47 20673ft 418kts
04-Jun-17 14:43 38.080360 -121.769901 46 23001ft 437kts
04-Jun-17 14:44 38.145345 -121.673370 46 24729ft 451kts
04-Jun-17 14:45 38.226606 -121.552137 46 26719ft 465kts
04-Jun-17 14:46 38.310991 -121.424797 47 28546ft 478kts
04-Jun-17 14:47 38.386909 -121.304643 49 30034ft 490kts
04-Jun-17 14:48 38.469148 -121.173144 50 31455ft 501kts
04-Jun-17 14:49 38.554467 -121.033639 50 33363ft 500kts
04-Jun-17 14:50 38.639955 -120.895463 50 35049ft 498kts
04-Jun-17 14:51 38.724732 -120.756883 50 35047ft 496kts
04-Jun-17 14:52 38.808976 -120.618314 50 35054ft 497kts
04-Jun-17 14:53 38.893330 -120.479211 50 35162ft 497kts
04-Jun-17 14:54 38.974586 -120.344345 51 35164ft 497kts
04-Jun-17 14:55 39.056508 -120.207779 51 35070ft 497kts
04-Jun-17 14:56 39.131135 -120.083368 51 34991ft 498kts
04-Jun-17 14:57 39.210851 -119.948101 51 35026ft 498kts
04-Jun-17 14:58 39.294332 -119.807057 50 35021ft 498kts
04-Jun-17 14:59 39.378162 -119.666898 51 35023ft 498kts
04-Jun-17 15:00 39.461013 -119.525402 52 35025ft 499kts
04-Jun-17 15:01 39.542274 -119.384255 51 35026ft 499kts
04-Jun-17 15:02 39.623214 -119.245985 51 34987ft 499kts
04-Jun-17 15:03 39.706910 -119.103310 51 34940ft 499kts
04-Jun-17 15:04 39.790268 -118.960005 52 34943ft 500kts
04-Jun-17 15:05 39.872107 -118.814631 54 34944ft 500kts
04-Jun-17 15:06 39.939808 -118.656512 61 34947ft 500kts
04-Jun-17 15:07 40.005482 -118.497470 61 34949ft 500kts
04-Jun-17 15:08 40.069029 -118.341104 62 34948ft 500kts
04-Jun-17 15:09 40.130216 -118.187705 63 34935ft 500kts
04-Jun-17 15:10 40.194049 -118.026298 67 34936ft 500kts
04-Jun-17 15:11 40.236668 -117.855137 74 34967ft 499kts
04-Jun-17 15:12 40.276498 -117.681325 76 34969ft 498kts
04-Jun-17 15:13 40.317137 -117.508016 74 34970ft 499kts
04-Jun-17 15:14 40.356960 -117.336431 75 34968ft 499kts
04-Jun-17 15:15 40.396322 -117.163403 75 34964ft 499kts
04-Jun-17 15:16 40.435437 -116.989900 75 34966ft 499kts
04-Jun-17 15:17 40.473818 -116.815214 76 34968ft 499kts
04-Jun-17 15:18 40.512446 -116.640467 75 34970ft 499kts
04-Jun-17 15:19 40.550834 -116.465632 75 34972ft 499kts
04-Jun-17 15:20 40.574003 -116.291114 87 34965ft 494kts
04-Jun-17 15:21 40.588120 -116.111486 87 34967ft 494kts
04-Jun-17 15:22 40.601956 -115.931609 87 34968ft 495kts
04-Jun-17 15:23 40.615265 -115.752160 87 34970ft 494kts
04-Jun-17 15:24 40.628291 -115.573410 88 34972ft 494kts
04-Jun-17 15:25 40.640653 -115.394638 87 34973ft 490kts
04-Jun-17 15:26 40.652786 -115.218601 87 34966ft 490kts
04-Jun-17 15:27 40.664569 -115.040454 87 34968ft 490kts
04-Jun-17 15:28 40.676256 -114.862463 87 34888ft 490kts
04-Jun-17 15:29 40.687514 -114.684117 87 34890ft 490kts
04-Jun-17 15:30 40.698657 -114.505800 88 34892ft 490kts
04-Jun-17 15:31 40.705831 -114.332977 90 34889ft 489kts
04-Jun-17 15:32 40.711379 -114.181078 90 34886ft 489kts
04-Jun-17 15:33 40.717678 -114.003879 90 34824ft 472kts
04-Jun-17 15:34 40.723508 -113.830494 90 33055ft 479kts
04-Jun-17 15:35 40.725931 -113.654422 92 30203ft 484kts
04-Jun-17 15:36 40.725655 -113.482270 92 28437ft 454kts
04-Jun-17 15:37 40.725047 -113.325338 93 27931ft 449kts
04-Jun-17 15:38 40.724512 -113.229119 93 26806ft 442kts
04-Jun-17 15:39 40.723647 -113.069521 93 24864ft 431kts
04-Jun-17 15:40 40.722828 -112.913865 93 23979ft 425kts
04-Jun-17 15:41 40.721632 -112.759011 93 23949ft 426kts
04-Jun-17 15:42 40.720210 -112.605682 93 22510ft 416kts
04-Jun-17 15:43 40.717217 -112.455571 94 20663ft 406kts
04-Jun-17 15:44 40.713237 -112.323326 94 19098ft 394kts
04-Jun-17 15:45 40.735432 -112.212168 48 17639ft 385kts
04-Jun-17 15:46 40.826622 -112.154275 11 15862ft 366kts
04-Jun-17 15:47 40.919743 -112.122612 11 15044ft 323kts
04-Jun-17 15:48 41.005298 -112.103193 355 13274ft 310kts
04-Jun-17 15:49 41.061648 -112.042239 95 12161ft 277kts
04-Jun-17 15:50 41.013913 -111.993485 186 11013ft 220kts
04-Jun-17 15:51 40.955085 -111.993417 175 9196ft 202kts
04-Jun-17 15:52 40.906635 -111.988247 174 7433ft 166kts
04-Jun-17 15:53 40.863698 -111.983530 172 5397ft 151kts
04-Jun-17 15:54 40.823279 -111.978810 175 4592ft 143kts
04-Jun-17 15:55 40.789706 -111.974827 174 4238ft 30kts
04-Jun-17 15:56 40.784736 -111.975647 206 4238ft 4kts
04-Jun-17 15:57 40.785032 -111.977358 285 4238ft 3kts
04-Jun-17 15:58 40.785039 -111.977387 286 4238ft 0kts
04-Jun-17 15:59 40.785039 -111.977387 286 4238ft 0kts
04-Jun-17 16:00 40.785039 -111.977387 286 4238ft 0kts
04-Jun-17 16:01 40.785039 -111.977387 286 4238ft 0kts
04-Jun-17 16:02 40.785039 -111.977387 286 4238ft 0kts
04-Jun-17 16:03 40.785039 -111.977387 286 4238ft 0kts
04-Jun-17 16:04 40.785039 -111.977387 286 4238ft 0kts
04-Jun-17 16:05 40.785039 -111.977387 286 4238ft 0kts
04-Jun-17 16:06 40.785039 -111.977387 286 4238ft 0kts

Navigation Log

Ident Type
1. KSFO Airport
2. TYDYE Fix
3. TRUKN Fix
4. HYPEE Fix
5. MOGEE Fix
6. MOGEE Navaid
7. MACUS Navaid
8. MCORD Navaid
9. SLOWN Navaid
10. FASTE Navaid
11. BVL Navaid
12. KSLC Airport